createdAt,value
2017-01-16T00:00:05.864Z,72.5
2017-01-16T00:01:15.805Z,72.5
2017-01-16T00:02:26.141Z,72.5
2017-01-16T00:03:36.895Z,72.5
2017-01-16T00:04:47.644Z,72.6
2017-01-16T00:05:58.014Z,72.31
2017-01-16T00:07:08.794Z,72.41
2017-01-16T00:08:19.589Z,72.41
2017-01-16T00:09:29.940Z,72.5
2017-01-16T00:10:40.291Z,72.22
2017-01-16T00:11:51.033Z,72.5
2017-01-16T00:13:01.379Z,72.31
2017-01-16T00:14:12.127Z,72.5
2017-01-16T00:15:22.482Z,72.31
2017-01-16T00:16:33.227Z,72.31
2017-01-16T00:17:43.584Z,72.31
2017-01-16T00:18:53.549Z,72.31
2017-01-16T00:20:03.507Z,72.5
2017-01-16T00:21:13.879Z,72.31
2017-01-16T00:22:24.623Z,72.5
2017-01-16T00:23:34.993Z,72.5
2017-01-16T00:24:45.339Z,72.6
2017-01-16T00:25:55.684Z,72.41
2017-01-16T00:27:06.424Z,72.69
2017-01-16T00:28:17.177Z,72.5
2017-01-16T00:29:27.115Z,72.78
2017-01-16T00:30:37.892Z,72.41
2017-01-16T00:31:48.626Z,72.41
2017-01-16T00:32:58.585Z,72.41
2017-01-16T00:34:08.922Z,72.41
2017-01-16T00:35:19.277Z,72.41
2017-01-16T00:36:29.626Z,72.69
2017-01-16T00:37:39.192Z,72.69
2017-01-16T00:38:49.933Z,72.69
2017-01-16T00:40:00.674Z,72.69
2017-01-16T00:41:11.432Z,72.69
2017-01-16T00:42:22.205Z,72.69
2017-01-16T00:43:32.140Z,72.69
2017-01-16T00:44:42.507Z,72.41
2017-01-16T00:45:52.504Z,72.41
2017-01-16T00:47:03.234Z,72.69
2017-01-16T00:48:12.791Z,72.75
2017-01-16T00:49:23.522Z,72.41
2017-01-16T00:50:33.480Z,72.37
2017-01-16T00:51:43.827Z,72.5
2017-01-16T00:52:54.552Z,72.41
2017-01-16T00:54:05.307Z,72.41
2017-01-16T00:55:15.656Z,72.5
2017-01-16T00:56:26.002Z,72.47
2017-01-16T00:57:36.339Z,72.5
2017-01-16T00:58:46.307Z,72.37
2017-01-16T00:59:56.275Z,72.6
2017-01-16T01:01:06.615Z,72.37
2017-01-16T01:02:17.392Z,72.12
2017-01-16T01:03:27.739Z,72.31
2017-01-16T01:04:37.684Z,72.12
2017-01-16T01:05:48.431Z,72.22
2017-01-16T01:06:59.172Z,72.31
2017-01-16T01:08:09.124Z,72.22
2017-01-16T01:09:19.862Z,72.22
2017-01-16T01:10:29.872Z,72.22
2017-01-16T01:11:40.631Z,72.31
2017-01-16T01:12:51.366Z,72.31
2017-01-16T01:14:01.713Z,72.41
2017-01-16T01:15:12.049Z,72.6
2017-01-16T01:16:22.417Z,72.5
2017-01-16T01:17:33.156Z,72.6
2017-01-16T01:18:43.890Z,72.5
2017-01-16T01:19:54.236Z,72.69
2017-01-16T01:21:04.179Z,72.6
2017-01-16T01:22:14.520Z,72.6
2017-01-16T01:23:25.286Z,72.6
2017-01-16T01:24:35.234Z,72.69
2017-01-16T01:25:45.966Z,72.6
2017-01-16T01:26:56.707Z,72.5
2017-01-16T01:28:07.474Z,71.93
2017-01-16T01:29:18.205Z,72.31
2017-01-16T01:30:28.165Z,71.74
2017-01-16T01:31:38.906Z,71.74
2017-01-16T01:32:49.692Z,72.5
2017-01-16T01:33:59.246Z,71.74
2017-01-16T01:35:09.592Z,72.78
2017-01-16T01:36:20.329Z,72.5
2017-01-16T01:37:30.278Z,71.74
2017-01-16T01:38:39.450Z,72.31
2017-01-16T01:39:50.197Z,72.78
2017-01-16T01:41:00.552Z,72.69
2017-01-16T01:42:10.908Z,72.5
2017-01-16T01:43:21.272Z,72.56
2017-01-16T01:44:31.657Z,72.56
2017-01-16T01:45:42.433Z,72.56
2017-01-16T01:46:52.375Z,71.9
2017-01-16T01:48:03.116Z,72.37
2017-01-16T01:49:13.844Z,72.75
2017-01-16T01:50:24.591Z,71.8
2017-01-16T01:51:34.933Z,72.47
2017-01-16T01:52:45.275Z,71.9
2017-01-16T01:53:56.015Z,71.71
2017-01-16T01:55:06.787Z,71.71
2017-01-16T01:56:17.134Z,72.75
2017-01-16T01:57:27.903Z,71.8
2017-01-16T01:58:37.859Z,72.75
2017-01-16T01:59:48.185Z,72.47
2017-01-16T02:00:58.552Z,72.56
2017-01-16T02:02:08.916Z,72.56
2017-01-16T02:03:19.659Z,72.56
2017-01-16T02:04:29.990Z,72.47
2017-01-16T02:05:40.719Z,72.66
2017-01-16T02:06:51.456Z,72.75
2017-01-16T02:08:01.796Z,72.66
2017-01-16T02:09:12.543Z,72.56
2017-01-16T02:10:23.271Z,72.56
2017-01-16T02:11:34.002Z,72.56
2017-01-16T02:12:44.348Z,72.47
2017-01-16T02:13:54.704Z,72.37
2017-01-16T02:15:05.492Z,72.37
2017-01-16T02:16:15.442Z,72.47
2017-01-16T02:17:26.192Z,72.37
2017-01-16T02:18:36.550Z,72.37
2017-01-16T02:19:46.920Z,72.47
2017-01-16T02:20:57.675Z,72.47
2017-01-16T02:22:08.026Z,72.56
2017-01-16T02:23:18.762Z,72.56
2017-01-16T02:24:28.715Z,72.47
2017-01-16T02:25:38.662Z,72.56
2017-01-16T02:26:49.007Z,72.47
2017-01-16T02:27:59.745Z,72.56
2017-01-16T02:29:10.088Z,72.18
2017-01-16T02:30:20.432Z,72.37
2017-01-16T02:31:30.769Z,72.28
2017-01-16T02:32:41.511Z,72.28
2017-01-16T02:33:52.254Z,72.28
2017-01-16T02:35:03.000Z,72.47
2017-01-16T02:36:13.731Z,72.37
2017-01-16T02:37:24.488Z,72.56
2017-01-16T02:38:35.234Z,72.47
2017-01-16T02:39:45.996Z,72.37
2017-01-16T02:40:56.735Z,72.47
2017-01-16T02:42:07.507Z,72.37
2017-01-16T02:43:17.849Z,72.66
2017-01-16T02:44:28.178Z,72.56
2017-01-16T02:45:38.940Z,72.47
2017-01-16T02:46:48.896Z,72.66
2017-01-16T02:47:59.277Z,72.56
2017-01-16T02:49:09.611Z,72.56
2017-01-16T02:50:20.347Z,72.37
2017-01-16T02:51:30.290Z,72.47
2017-01-16T02:52:41.065Z,72.66
2017-01-16T02:53:52.172Z,71.71
2017-01-16T02:55:02.939Z,71.8
2017-01-16T02:56:13.284Z,71.99
2017-01-16T02:57:23.629Z,71.9
2017-01-16T02:58:33.183Z,72.09
2017-01-16T02:59:43.915Z,71.99
2017-01-16T03:00:54.247Z,71.99
2017-01-16T03:02:04.599Z,72.09
2017-01-16T03:33:21.310Z,71.37
2017-01-16T03:34:31.653Z,71.94
2017-01-16T03:35:41.977Z,72.22
2017-01-16T03:36:52.325Z,73.26
2017-01-16T03:38:03.086Z,73.64
2017-01-16T03:39:13.903Z,74.21
2017-01-16T03:40:24.232Z,74.96
2017-01-16T03:41:34.977Z,74.58
2017-01-16T03:42:45.709Z,74.87
2017-01-16T03:43:56.055Z,74.87
2017-01-16T03:45:06.799Z,74.71
2017-01-16T03:46:17.144Z,75
2017-01-16T03:47:27.950Z,74.43
2017-01-16T03:48:38.303Z,74.05
2017-01-16T03:49:48.641Z,74.05
2017-01-16T03:50:59.392Z,74.15
2017-01-16T03:52:09.728Z,73.3
2017-01-16T03:53:20.475Z,73.33
2017-01-16T03:54:31.071Z,73.43
2017-01-16T03:55:40.232Z,73.14
2017-01-16T03:56:50.175Z,73.05
2017-01-16T03:58:00.131Z,72.49
2017-01-16T03:59:10.468Z,72.39
2017-01-16T04:00:21.210Z,72.58
2017-01-16T04:01:31.956Z,72.3
2017-01-16T04:02:42.688Z,72.33
2017-01-16T04:03:53.046Z,72.14
2017-01-16T04:05:03.790Z,72.05
2017-01-16T04:06:14.533Z,72.05
2017-01-16T04:07:25.273Z,72.24
2017-01-16T04:08:35.302Z,72.24
2017-01-16T04:09:45.658Z,72.33
2017-01-16T04:10:55.996Z,72.33
2017-01-16T04:12:05.545Z,72.33
2017-01-16T04:13:16.280Z,72.43
2017-01-16T04:14:26.266Z,72.71
2017-01-16T04:15:36.218Z,72.62
2017-01-16T04:16:46.964Z,72.33
2017-01-16T04:17:57.315Z,71.67
2017-01-16T04:19:07.658Z,71.77
2017-01-16T04:20:18.016Z,71.86
2017-01-16T04:21:27.562Z,71.86
2017-01-16T04:22:38.298Z,71.86
2017-01-16T04:23:48.639Z,71.86
2017-01-16T04:24:58.591Z,71.95
2017-01-16T04:26:09.347Z,72.05
2017-01-16T04:27:19.694Z,72.05
2017-01-16T04:28:30.082Z,71.95
2017-01-16T04:29:40.024Z,71.86
2017-01-16T04:30:50.815Z,72.14
2017-01-16T04:32:00.357Z,72.14
2017-01-16T04:33:10.710Z,71.77
2017-01-16T04:34:21.455Z,72.33
2017-01-16T04:35:32.186Z,71.77
2017-01-16T04:36:42.978Z,71.77
2017-01-16T04:37:53.718Z,72.05
2017-01-16T04:39:04.481Z,72.05
2017-01-16T04:40:15.234Z,71.77
2017-01-16T04:41:25.980Z,71.77
2017-01-16T04:42:36.713Z,72.05
2017-01-16T04:43:47.460Z,71.48
2017-01-16T04:44:58.206Z,71.77
2017-01-16T04:46:08.162Z,71.77
2017-01-16T04:47:18.499Z,71.48
2017-01-16T04:48:28.842Z,71.58
2017-01-16T04:49:39.193Z,71.86
2017-01-16T04:50:49.629Z,71.39
2017-01-16T04:52:00.137Z,71.48
2017-01-16T04:53:10.558Z,71.39
2017-01-16T04:54:21.351Z,71.48
2017-01-16T04:55:31.336Z,71.39
2017-01-16T04:56:42.139Z,71.77
2017-01-16T04:57:52.527Z,71.58
2017-01-16T04:59:03.325Z,71.39
2017-01-16T05:00:14.131Z,71.48
2017-01-16T05:01:24.130Z,71.39
2017-01-16T05:02:34.122Z,71.58
2017-01-16T05:03:44.529Z,71.2
2017-01-16T05:04:55.328Z,71.11
2017-01-16T05:06:06.167Z,71.48
2017-01-16T05:07:16.987Z,71.39
2017-01-16T05:08:27.777Z,71.48
2017-01-16T05:09:38.576Z,71.39
2017-01-16T05:10:48.977Z,71.3
2017-01-16T05:11:59.781Z,71.2
2017-01-16T05:13:10.225Z,71.11
2017-01-16T05:14:21.137Z,71.77
2017-01-16T05:15:31.572Z,71.48
2017-01-16T05:16:42.454Z,71.58
2017-01-16T05:17:53.325Z,71.3
2017-01-16T05:19:03.789Z,71.39
2017-01-16T05:20:14.237Z,71.39
2017-01-16T05:21:24.223Z,71.39
2017-01-16T05:22:35.021Z,71.58
2017-01-16T05:23:45.421Z,71.95
2017-01-16T05:24:55.815Z,71.58
2017-01-16T05:26:06.199Z,71.58
2017-01-16T05:27:17.001Z,71.67
2017-01-16T05:28:27.792Z,71.86
2017-01-16T05:29:37.791Z,71.3
2017-01-16T05:30:48.196Z,71.39
2017-01-16T05:31:59.012Z,71.77
2017-01-16T05:33:09.814Z,71.86
2017-01-16T05:34:20.596Z,71.67
2017-01-16T05:35:31.387Z,71.67
2017-01-16T05:36:41.793Z,71.48
2017-01-16T05:37:52.186Z,71.67
2017-01-16T05:39:02.182Z,71.58
2017-01-16T05:40:12.969Z,71.67
2017-01-16T05:41:23.770Z,71.67
2017-01-16T05:42:34.115Z,71.39
2017-01-16T05:43:44.071Z,71.39
2017-01-16T05:44:54.426Z,71.39
2017-01-16T05:46:04.372Z,71.48
2017-01-16T05:47:15.112Z,71.39
2017-01-16T05:48:25.457Z,71.3
2017-01-16T05:49:35.807Z,71.58
2017-01-16T05:50:46.545Z,71.48
2017-01-16T05:51:56.883Z,71.11
2017-01-16T05:53:06.835Z,71.2
2017-01-16T05:54:17.181Z,71.11
2017-01-16T05:55:27.929Z,71.86
2017-01-16T05:56:37.895Z,71.67
2017-01-16T05:57:48.642Z,71.67
2017-01-16T05:58:59.389Z,71.39
2017-01-16T06:00:09.721Z,71.26
2017-01-16T06:01:20.073Z,71.54
2017-01-16T06:02:30.014Z,71.45
2017-01-16T06:03:40.352Z,71.35
2017-01-16T06:04:50.688Z,71.26
2017-01-16T06:06:01.024Z,71.35
2017-01-16T06:07:11.773Z,71.35
2017-01-16T06:08:22.513Z,71.83
2017-01-16T06:09:32.864Z,71.35
2017-01-16T06:10:43.202Z,71.73
2017-01-16T06:11:53.942Z,71.45
2017-01-16T06:13:04.675Z,71.26
2017-01-16T06:14:15.402Z,71.35
2017-01-16T06:15:25.747Z,71.26
2017-01-16T06:16:36.089Z,71.16
2017-01-16T06:17:46.442Z,71.35
2017-01-16T06:18:56.404Z,71.45
2017-01-16T06:20:06.745Z,71.16
2017-01-16T06:21:17.091Z,71.64
2017-01-16T06:22:27.843Z,71.35
2017-01-16T06:23:38.177Z,71.73
2017-01-16T06:24:48.522Z,71.16
2017-01-16T06:25:59.245Z,71.64
2017-01-16T06:27:08.799Z,71.64
2017-01-16T06:28:19.197Z,71.16
2017-01-16T06:29:29.523Z,71.16
2017-01-16T06:30:40.265Z,71.07
2017-01-16T06:31:50.612Z,71.16
2017-01-16T06:33:00.949Z,71.26
2017-01-16T06:34:11.680Z,71.35
2017-01-16T06:35:22.055Z,71.07
2017-01-16T06:36:32.810Z,71.07
2017-01-16T06:37:43.151Z,70.78
2017-01-16T06:38:53.898Z,71.07
2017-01-16T06:40:04.245Z,71.16
2017-01-16T06:41:15.025Z,70.78
2017-01-16T06:42:25.372Z,70.78
2017-01-16T06:43:36.109Z,71.07
2017-01-16T06:44:46.832Z,71.07
2017-01-16T06:45:57.561Z,70.97
2017-01-16T06:47:07.934Z,70.78
2017-01-16T06:48:18.677Z,71.16
2017-01-16T06:49:29.417Z,70.88
2017-01-16T06:50:40.155Z,71.26
2017-01-16T06:51:50.524Z,71.35
2017-01-16T06:53:01.283Z,70.97
2017-01-16T06:54:11.616Z,71.07
2017-01-16T06:55:21.972Z,71.07
2017-01-16T06:56:32.728Z,70.78
2017-01-16T06:57:43.462Z,71.16
2017-01-16T06:58:53.797Z,70.97
2017-01-16T07:00:04.141Z,70.97
2017-01-16T07:01:14.880Z,70.97
2017-01-16T07:02:25.661Z,70.69
2017-01-16T07:03:36.009Z,71.16
2017-01-16T07:04:45.964Z,71.16
2017-01-16T07:05:55.920Z,70.97
2017-01-16T07:07:06.664Z,71.26
2017-01-16T07:08:17.014Z,70.59
2017-01-16T07:09:27.376Z,70.69
2017-01-16T07:10:37.723Z,70.4
2017-01-16T07:11:48.063Z,70.59
2017-01-16T07:12:58.404Z,70.59
2017-01-16T07:14:08.737Z,70.4
2017-01-16T07:15:19.093Z,70.69
2017-01-16T07:16:29.840Z,70.78
2017-01-16T07:17:40.182Z,70.59
2017-01-16T07:18:50.919Z,70.4
2017-01-16T07:20:00.875Z,70.5
2017-01-16T07:21:11.224Z,70.69
2017-01-16T07:22:21.951Z,70.59
2017-01-16T07:23:32.317Z,70.59
2017-01-16T07:24:43.061Z,70.69
2017-01-16T07:25:53.008Z,70.54
2017-01-16T07:27:03.370Z,70.82
2017-01-16T07:28:13.707Z,70.82
2017-01-16T07:29:23.259Z,70.54
2017-01-16T07:30:33.591Z,70.63
2017-01-16T07:31:43.951Z,70.73
2017-01-16T07:32:54.322Z,70.73
2017-01-16T07:34:04.709Z,70.63
2017-01-16T07:35:15.061Z,70.73
2017-01-16T07:36:25.009Z,70.44
2017-01-16T07:37:35.766Z,70.35
2017-01-16T07:38:46.119Z,70.25
2017-01-16T07:39:56.869Z,70.44
2017-01-16T07:41:07.604Z,70.25
2017-01-16T07:42:17.541Z,69.87
2017-01-16T07:43:28.288Z,70.35
2017-01-16T07:44:38.237Z,70.39
2017-01-16T07:45:48.572Z,70.48
2017-01-16T07:46:58.539Z,70.29
2017-01-16T07:48:08.915Z,70.2
2017-01-16T07:49:18.486Z,70.29
2017-01-16T07:50:28.439Z,70.48
2017-01-16T07:51:38.780Z,70.39
2017-01-16T07:52:49.523Z,69.72
2017-01-16T07:54:00.280Z,69.91
2017-01-16T07:55:11.014Z,69.44
2017-01-16T07:56:21.357Z,69.63
2017-01-16T07:57:31.710Z,69.66
2017-01-16T07:58:42.454Z,69.66
2017-01-16T07:59:52.420Z,69.76
2017-01-16T08:01:03.186Z,69.47
2017-01-16T08:02:13.915Z,69.66
2017-01-16T08:03:24.261Z,69.66
2017-01-16T08:04:34.203Z,69.57
2017-01-16T08:05:44.928Z,69.19
2017-01-16T08:06:55.511Z,69.32
2017-01-16T08:08:06.259Z,69.13
2017-01-16T08:09:16.599Z,69.32
2017-01-16T08:10:26.546Z,69.32
2017-01-16T08:11:36.523Z,69.51
2017-01-16T08:12:46.876Z,69.54
2017-01-16T08:13:57.631Z,69.45
2017-01-16T08:15:08.361Z,69.45
2017-01-16T08:16:19.107Z,70.11
2017-01-16T08:17:29.861Z,70.49
2017-01-16T08:18:39.817Z,70.87
2017-01-16T08:19:50.573Z,70.87
2017-01-16T08:21:00.920Z,71.5
2017-01-16T08:22:11.658Z,71.12
2017-01-16T08:23:22.403Z,71.12
2017-01-16T08:24:33.145Z,71.78
2017-01-16T08:25:43.487Z,71.5
2017-01-16T08:26:53.845Z,71.21
2017-01-16T08:28:04.236Z,71.31
2017-01-16T08:29:14.981Z,71.4
2017-01-16T08:30:25.714Z,71.21
2017-01-16T08:31:36.475Z,71.5
2017-01-16T08:32:46.053Z,71.88
2017-01-16T08:33:56.450Z,71.69
2017-01-16T08:35:06.781Z,71.78
2017-01-16T08:36:17.518Z,71.21
2017-01-16T08:37:27.474Z,71.78
2017-01-16T08:38:38.217Z,70.93
2017-01-16T08:39:48.962Z,71.31
2017-01-16T08:40:59.705Z,70.45
2017-01-16T08:42:10.442Z,70.74
2017-01-16T08:43:20.773Z,70.55
2017-01-16T08:44:31.118Z,70.93
2017-01-16T08:45:41.852Z,70.68
2017-01-16T08:46:52.203Z,70.3
2017-01-16T08:48:02.950Z,70.3
2017-01-16T08:49:13.287Z,70.3
2017-01-16T08:50:23.248Z,70.2
2017-01-16T08:51:33.589Z,70.49
2017-01-16T08:52:43.957Z,70.49
2017-01-16T08:53:54.309Z,69.92
2017-01-16T08:55:04.270Z,69.96
2017-01-16T08:56:15.005Z,69.57
2017-01-16T08:57:25.348Z,69.38
2017-01-16T08:58:35.699Z,69.38
2017-01-16T08:59:46.461Z,69.48
2017-01-16T09:00:56.803Z,69.77
2017-01-16T09:02:07.145Z,69.86
2017-01-16T09:03:17.491Z,70.43
2017-01-16T09:04:27.830Z,70.53
2017-01-16T09:05:38.565Z,70.24
2017-01-16T09:06:48.937Z,70.9
2017-01-16T09:07:59.674Z,71
2017-01-16T09:09:09.631Z,70.62
2017-01-16T09:10:20.373Z,71
2017-01-16T09:11:30.718Z,70.97
2017-01-16T09:12:41.465Z,71.57
2017-01-16T09:13:51.432Z,71
2017-01-16T09:15:02.166Z,70.34
2017-01-16T09:16:12.929Z,70.62
2017-01-16T09:17:23.664Z,70.34
2017-01-16T09:18:33.645Z,71.09
2017-01-16T09:19:44.383Z,70.81
2017-01-16T09:20:55.124Z,71.57
2017-01-16T09:22:05.061Z,71.38
2017-01-16T09:23:15.412Z,71.06
2017-01-16T09:24:26.386Z,71.72
2017-01-16T09:25:36.365Z,71.62
2017-01-16T09:26:46.714Z,71.28
2017-01-16T09:27:57.493Z,71.06
2017-01-16T09:29:07.450Z,71.28
2017-01-16T09:30:17.417Z,71.19
2017-01-16T09:31:27.764Z,71.66
2017-01-16T09:32:38.111Z,71.28
2017-01-16T09:33:48.859Z,71.57
2017-01-16T09:34:59.206Z,71.09
2017-01-16T09:36:09.568Z,70.62
2017-01-16T09:37:20.316Z,70.43
2017-01-16T09:38:30.691Z,70.72
2017-01-16T09:39:41.043Z,70.9
2017-01-16T09:40:51.379Z,70.62
2017-01-16T09:42:01.727Z,70.53
2017-01-16T09:43:11.288Z,70.9
2017-01-16T09:44:21.644Z,71.57
2017-01-16T09:45:31.989Z,71.57
2017-01-16T09:46:42.738Z,71.38
2017-01-16T09:47:53.526Z,71.57
2017-01-16T09:49:03.892Z,71.38
2017-01-16T09:50:14.250Z,71.28
2017-01-16T09:51:24.632Z,71
2017-01-16T09:52:34.573Z,71.28
2017-01-16T09:53:45.307Z,71.38
2017-01-16T09:54:56.052Z,71.57
2017-01-16T09:56:06.009Z,71.66
2017-01-16T09:57:16.356Z,71.76
2017-01-16T09:58:26.706Z,71.13
2017-01-16T09:59:37.463Z,71.19
2017-01-16T10:00:47.806Z,71.19
2017-01-16T10:01:58.583Z,71.32
2017-01-16T10:03:08.939Z,71.6
2017-01-16T10:04:19.677Z,71.41
2017-01-16T10:05:30.033Z,71.09
2017-01-16T10:06:40.771Z,71.57
2017-01-16T10:07:50.720Z,71.28
2017-01-16T10:09:00.670Z,71.85
2017-01-16T10:10:11.040Z,71
2017-01-16T10:11:21.801Z,70.94
2017-01-16T10:12:31.763Z,70.94
2017-01-16T10:13:42.125Z,70.84
2017-01-16T10:14:52.090Z,70.65
2017-01-16T10:16:02.034Z,70.56
2017-01-16T10:17:12.402Z,71.03
2017-01-16T10:18:23.148Z,71.6
2017-01-16T10:19:33.884Z,71.6
2017-01-16T10:20:44.634Z,71.32
2017-01-16T10:21:54.992Z,71.7
2017-01-16T10:23:05.744Z,71.41
2017-01-16T10:24:15.371Z,71.7
2017-01-16T10:25:25.738Z,71.6
2017-01-16T10:26:36.085Z,71.22
2017-01-16T10:27:46.847Z,70.37
2017-01-16T10:28:57.203Z,70.98
2017-01-16T10:30:07.549Z,70.88
2017-01-16T10:31:18.297Z,70.98
2017-01-16T10:32:28.238Z,71.73
2017-01-16T10:33:38.982Z,70.5
2017-01-16T10:34:49.346Z,70.88
2017-01-16T10:35:59.313Z,70.88
2017-01-16T10:37:10.077Z,71.64
2017-01-16T10:38:20.832Z,70.78
2017-01-16T10:39:31.179Z,70.78
2017-01-16T10:40:41.126Z,70.35
2017-01-16T10:41:51.892Z,70.63
2017-01-16T10:43:02.266Z,69.87
2017-01-16T10:44:12.606Z,69.87
2017-01-16T10:45:22.950Z,69.87
2017-01-16T10:46:33.745Z,70.44
2017-01-16T10:47:44.091Z,70.63
2017-01-16T10:48:54.833Z,70.73
2017-01-16T10:50:05.590Z,71.67
2017-01-16T10:51:15.937Z,71.2
2017-01-16T10:52:26.687Z,71.67
2017-01-16T10:53:37.430Z,71.86
2017-01-16T10:54:48.173Z,71.77
2017-01-16T10:55:58.128Z,71.67
2017-01-16T10:57:08.882Z,71.73
2017-01-16T10:58:19.233Z,71.73
2017-01-16T10:59:29.613Z,72.21
2017-01-16T11:00:39.960Z,72.02
2017-01-16T11:01:50.697Z,72.59
2017-01-16T11:03:01.429Z,72.64
2017-01-16T11:04:12.192Z,72.36
2017-01-16T11:05:22.544Z,72.27
2017-01-16T11:06:32.911Z,72.64
2017-01-16T11:07:43.650Z,72.55
2017-01-16T11:08:54.431Z,72.17
2017-01-16T11:10:05.168Z,71.8
2017-01-16T11:11:15.516Z,71.6
2017-01-16T11:12:25.076Z,70.88
2017-01-16T11:13:35.454Z,70.59
2017-01-16T11:14:45.815Z,69.96
2017-01-16T11:15:56.007Z,69.11
2017-01-16T11:17:06.745Z,69.05
2017-01-16T11:18:17.100Z,68.86
2017-01-16T11:19:27.457Z,68.48
2017-01-16T11:20:38.204Z,69.34
2017-01-16T11:21:48.162Z,70.19
2017-01-16T11:22:58.904Z,71.11
2017-01-16T11:24:09.645Z,71.48
2017-01-16T11:25:20.401Z,71.58
2017-01-16T11:26:31.144Z,72.3
2017-01-16T11:27:41.493Z,71.92
2017-01-16T11:28:52.265Z,72.21
2017-01-16T11:30:02.202Z,71.83
2017-01-16T11:31:12.968Z,71.64
2017-01-16T11:32:23.716Z,72.49
2017-01-16T11:33:33.691Z,72.78
2017-01-16T11:34:44.048Z,72.4
2017-01-16T11:35:54.411Z,72.49
2017-01-16T11:37:04.748Z,72.36
2017-01-16T11:38:15.504Z,72.08
2017-01-16T11:39:25.885Z,72.45
2017-01-16T11:40:36.623Z,72.93
2017-01-16T11:41:46.973Z,72.55
2017-01-16T11:42:57.354Z,72.45
2017-01-16T11:44:07.716Z,72.55
2017-01-16T11:45:18.079Z,72.45
2017-01-16T11:46:28.420Z,72.55
2017-01-16T11:47:38.794Z,72.64
2017-01-16T11:48:48.733Z,72.93
2017-01-16T11:49:59.497Z,71.8
2017-01-16T11:51:10.239Z,71.89
2017-01-16T11:52:20.190Z,71.89
2017-01-16T11:53:30.964Z,71.98
2017-01-16T11:54:41.704Z,71.89
2017-01-16T11:55:52.453Z,71.98
2017-01-16T11:57:02.802Z,72.55
2017-01-16T11:58:13.540Z,71.8
2017-01-16T11:59:24.289Z,71.7
2017-01-16T12:00:35.041Z,71.7
2017-01-16T12:01:45.786Z,71.51
2017-01-16T12:02:55.758Z,71.41
2017-01-16T12:04:06.110Z,71.51
2017-01-16T12:05:16.502Z,72.08
2017-01-16T12:06:27.243Z,72.08
2017-01-16T12:07:37.590Z,71.6
2017-01-16T12:08:47.935Z,71.03
2017-01-16T12:09:58.307Z,71.6
2017-01-16T12:11:09.054Z,71.89
2017-01-16T12:12:19.389Z,72.36
2017-01-16T12:13:30.118Z,71.41
2017-01-16T12:14:40.698Z,71.8
2017-01-16T12:15:51.431Z,72.08
2017-01-16T12:17:01.779Z,72.27
2017-01-16T12:18:11.733Z,72.84
2017-01-16T12:19:21.315Z,72.64
2017-01-16T12:20:32.073Z,72.64
2017-01-16T12:21:42.408Z,72.08
2017-01-16T12:22:53.160Z,72.08
2017-01-16T12:24:03.509Z,72.17
2017-01-16T12:25:13.857Z,71.89
2017-01-16T12:26:23.813Z,71.6
2017-01-16T12:27:33.781Z,71.41
2017-01-16T12:28:44.519Z,71.8
2017-01-16T12:29:54.887Z,71.6
2017-01-16T12:31:04.442Z,71.83
2017-01-16T12:32:15.180Z,71.17
2017-01-16T12:33:25.928Z,71.26
2017-01-16T12:34:35.894Z,70.78
2017-01-16T12:35:46.238Z,71.07
2017-01-16T12:36:56.583Z,71.07
2017-01-16T12:38:06.932Z,70.44
2017-01-16T12:39:17.715Z,70.35
2017-01-16T12:40:27.652Z,70.44
2017-01-16T12:41:38.008Z,70.82
2017-01-16T12:42:47.975Z,71.01
2017-01-16T12:43:58.982Z,71.77
2017-01-16T12:45:09.748Z,71.58
2017-01-16T12:46:20.105Z,71.48
2017-01-16T12:47:30.866Z,71.11
2017-01-16T12:48:41.208Z,71.39
2017-01-16T12:49:51.549Z,71.58
2017-01-16T12:51:01.488Z,71.67
2017-01-16T12:52:11.451Z,71.11
2017-01-16T12:53:21.427Z,71.64
2017-01-16T12:54:31.768Z,71.73
2017-01-16T12:55:42.523Z,71.83
2017-01-16T12:56:53.298Z,72.02
2017-01-16T12:58:02.866Z,71.45
2017-01-16T12:59:13.605Z,71.73
2017-01-16T13:00:23.956Z,71.83
2017-01-16T13:01:34.695Z,71.45
2017-01-16T13:02:45.462Z,71.01
2017-01-16T13:03:55.419Z,70.82
2017-01-16T13:05:05.766Z,71.01
2017-01-16T13:06:15.782Z,71.01
2017-01-16T13:07:26.539Z,70.92
2017-01-16T13:08:36.095Z,70.82
2017-01-16T13:09:46.455Z,71.11
2017-01-16T13:10:56.820Z,70.63
2017-01-16T13:12:07.183Z,71.67
2017-01-16T13:13:17.919Z,71.3
2017-01-16T13:14:28.276Z,71.58
2017-01-16T13:15:38.630Z,71.39
2017-01-16T13:16:48.577Z,71.77
2017-01-16T13:17:59.390Z,71.58
2017-01-16T13:19:09.753Z,71.67
2017-01-16T13:20:20.134Z,71.67
2017-01-16T13:21:30.888Z,71.3
2017-01-16T13:22:41.273Z,71.11
2017-01-16T13:23:51.623Z,71.48
2017-01-16T13:25:01.976Z,71.39
2017-01-16T13:26:12.715Z,71.39
2017-01-16T13:27:23.100Z,71.2
2017-01-16T13:28:33.861Z,71.3
2017-01-16T13:29:44.615Z,71.3
2017-01-16T13:30:55.367Z,71.48
2017-01-16T13:32:06.110Z,71.39
2017-01-16T13:33:16.485Z,71.39
2017-01-16T13:34:26.444Z,71.3
2017-01-16T13:35:36.788Z,71.77
2017-01-16T13:36:46.736Z,71.96
2017-01-16T13:37:57.084Z,71.77
2017-01-16T13:39:07.818Z,71.96
2017-01-16T13:40:18.566Z,71.86
2017-01-16T13:41:29.304Z,71.48
2017-01-16T13:42:38.871Z,71.96
2017-01-16T13:43:49.266Z,71.77
2017-01-16T13:45:00.003Z,71.96
2017-01-16T13:46:10.740Z,72.25
2017-01-16T13:47:21.108Z,72.21
2017-01-16T13:48:31.449Z,72.4
2017-01-16T13:49:41.812Z,72.21
2017-01-16T13:50:51.387Z,72.21
2017-01-16T13:52:02.129Z,72.11
2017-01-16T13:53:12.118Z,72.02
2017-01-16T13:54:22.860Z,72.97
2017-01-16T13:55:32.831Z,72.68
2017-01-16T13:56:43.578Z,72.68
2017-01-16T13:57:54.323Z,72.78
2017-01-16T13:59:05.083Z,72.55
2017-01-16T14:00:15.438Z,73.03
2017-01-16T14:01:25.819Z,72.55
2017-01-16T14:02:36.568Z,72.74
2017-01-16T14:03:46.918Z,72.64
2017-01-16T14:04:57.670Z,72.84
2017-01-16T14:06:08.047Z,72.64
2017-01-16T14:07:18.428Z,72.84
2017-01-16T14:08:28.394Z,72.74
2017-01-16T14:09:39.138Z,72.93
2017-01-16T14:10:49.469Z,73.12
2017-01-16T14:11:59.426Z,72.93
2017-01-16T14:13:09.022Z,73.12
2017-01-16T14:14:19.816Z,72.84
2017-01-16T14:15:30.592Z,72.84
2017-01-16T14:16:40.961Z,72.8
2017-01-16T14:17:50.920Z,72.71
2017-01-16T14:19:01.677Z,72.8
2017-01-16T14:20:12.025Z,72.33
2017-01-16T14:21:22.771Z,72.52
2017-01-16T14:22:33.130Z,72.33
2017-01-16T14:23:43.484Z,72.8
2017-01-16T14:24:54.221Z,72.8
2017-01-16T14:26:04.993Z,72.71
2017-01-16T14:27:15.741Z,72.23
2017-01-16T14:28:26.093Z,72.23
2017-01-16T14:29:36.833Z,71.95
2017-01-16T14:30:47.172Z,72.04
2017-01-16T14:31:57.903Z,72.23
2017-01-16T14:33:08.285Z,72.42
2017-01-16T14:34:18.646Z,72.23
2017-01-16T14:35:29.013Z,72.42
2017-01-16T14:36:39.772Z,72.42
2017-01-16T14:37:50.583Z,72.14
2017-01-16T14:39:01.033Z,72.23
2017-01-16T14:40:11.424Z,72.42
2017-01-16T14:41:22.218Z,72.42
2017-01-16T14:42:33.019Z,72.42
2017-01-16T14:43:43.419Z,72.61
2017-01-16T14:44:54.230Z,72.42
2017-01-16T14:46:03.839Z,72.33
2017-01-16T14:47:14.267Z,72.33
2017-01-16T14:48:25.092Z,72.33
2017-01-16T14:49:35.868Z,72.52
2017-01-16T14:50:46.657Z,72.33
2017-01-16T14:51:57.466Z,72.33
2017-01-16T14:53:07.877Z,72.33
2017-01-16T14:54:17.863Z,72.38
2017-01-16T14:55:28.244Z,72.19
2017-01-16T14:56:38.606Z,72.19
2017-01-16T14:57:49.404Z,72.48
2017-01-16T14:58:59.758Z,72.29
2017-01-16T15:00:10.118Z,72.67
2017-01-16T15:01:20.459Z,72.48
2017-01-16T15:02:30.021Z,72.48
2017-01-16T15:03:40.814Z,72.67
2017-01-16T15:04:50.782Z,72.96
2017-01-16T15:06:01.129Z,72.77
2017-01-16T15:07:11.885Z,72.48
2017-01-16T15:08:21.859Z,72.29
2017-01-16T15:09:32.651Z,72.48
2017-01-16T15:10:43.422Z,72.29
2017-01-16T15:11:54.190Z,72.57
2017-01-16T15:13:04.943Z,72.48
2017-01-16T15:14:15.294Z,72.48
2017-01-16T15:15:25.286Z,72.29
2017-01-16T15:16:36.031Z,72.16
2017-01-16T15:17:46.757Z,72.44
2017-01-16T15:18:56.723Z,72.25
2017-01-16T15:20:07.503Z,72.63
2017-01-16T15:21:17.497Z,72.44
2017-01-16T15:22:28.269Z,72.34
2017-01-16T15:23:39.018Z,72.44
2017-01-16T15:24:49.393Z,72.53
2017-01-16T15:26:00.145Z,72.44
2017-01-16T15:27:10.901Z,72.92
2017-01-16T15:28:21.255Z,71.97
2017-01-16T15:29:31.234Z,72.16
2017-01-16T15:30:42.002Z,71.97
2017-01-16T15:31:52.754Z,72.16
2017-01-16T15:33:03.091Z,72.34
2017-01-16T15:34:13.090Z,72.44
2017-01-16T15:35:23.840Z,72.44
2017-01-16T15:36:34.205Z,72.06
2017-01-16T15:37:44.177Z,72.34
2017-01-16T15:38:54.538Z,72.25
2017-01-16T15:40:04.498Z,71.88
2017-01-16T15:41:15.262Z,72.34